knuc
Results for: knuc
AirNav: KNUC - San Clemente Island NALF
KNUC: San Clemente Island NALF San Clemente Island, California, USA: ... KNUC : 242256Z 22009KT 9SM SCT010 20/14 A2994 RMK SLP135 LAST T02000144 TAF; NOTAMs;
AirNav: KNUC - San Clemente Island NALF
KNUC - San Clemente Island - FlightAware - Flight Tracker ...
San Clemente Island Nalf (San Clemente Island, CA) [KNUC / NUC] flight tracking (arrivals, departures and en route flights) and airport status with maps and graphs.
KNUC - San Clemente Island - FlightAware - Flight Tracker ...
Infinite Flight KLAX - KNUC :))) NEW Boeing 777-200 LR (PART ...
Infinite Flight Alaska Air Boeing 737-800 Full Flight KLAX-KNUC (Live ATC) - Duration: 23:54. Infinite Flight Multiplayer Official 126 views
Infinite Flight KLAX - KNUC :))) NEW Boeing 777-200 LR (PART ...
Related Searches
 » knuc